Thomas, Louisiana
Current Conditions -  °F | °C
As of 3:55 PM on Saturday 25 Oct 2014 (Local Time) from KHDC Reporting Station
Clear Clear  
Wind Chill: 82°   Ceiling: Unl
Heat Index: 82°   Visibility: 10mi
Dew Point: 50°   Wind: 7mph
Humidity: 32%   Direction: 340°NNW
Pressure: 30.08"   Gusts: NA
Location:  30.8503°N, 90.0561°W
Report Text: KHDC 252055Z AUTO 34006KT 10SM CLR 28/10 A3008 RMK AO2
Loading
Personal Weather Stations






























Interactive Weather Map
Tropical Storm Tracking
New forecast layout! Learn more

10-Day Weather Forecast

Advertisements
Track Severe Weather on mobile